Driftwood, Texas
Current Conditions -  °F | °C
As of 11:52 AM on Tuesday 21 Oct 2014 (Local Time) from KHYI Reporting Station
Clear Clear  
Wind Chill: 79°   Ceiling: Unl
Heat Index: 80°   Visibility: 10mi
Dew Point: 57°   Wind: 13mph
Humidity: 47%   Direction: 50°NE
Pressure: 30.09"   Gusts: NA
Location:  30.08°N, 98.02°W
Report Text: KHYI 211652Z 05011KT 10SM CLR 26/14 A3009
Loading
Personal Weather Stations






























Interactive Weather Map
Tropical Storm Tracking
New forecast layout! Learn more

10-Day Weather Forecast

Advertisements
Track Severe Weather on mobile